createdAt,value
2023-06-18T00:01:26.505Z,95.60
2023-06-18T00:04:05.627Z,95.80
2023-06-18T00:06:44.571Z,95.70
2023-06-18T00:09:13.217Z,95.80
2023-06-18T00:11:41.811Z,95.90
2023-06-18T00:14:10.486Z,95.80
2023-06-18T00:16:38.942Z,95.80
2023-06-18T00:19:07.383Z,95.90
2023-06-18T00:21:37.266Z,96.00
2023-06-18T00:24:06.501Z,96.30
2023-06-18T00:26:37.452Z,96.20
2023-06-18T00:29:06.512Z,96.50
2023-06-18T00:31:37.989Z,96.50
2023-06-18T00:34:08.335Z,96.50
2023-06-18T00:36:44.542Z,96.50
2023-06-18T00:39:13.132Z,96.50
2023-06-18T00:41:41.509Z,96.80
2023-06-18T00:44:09.902Z,96.80
2023-06-18T00:46:38.649Z,96.70
2023-06-18T00:49:09.427Z,96.90
2023-06-18T00:51:45.935Z,96.80
2023-06-18T00:54:16.008Z,96.60
2023-06-18T00:56:52.035Z,96.60
2023-06-18T00:59:24.112Z,96.50
2023-06-18T01:01:56.085Z,96.60
2023-06-18T01:04:27.503Z,96.50
2023-06-18T01:06:58.782Z,96.50
2023-06-18T01:09:28.356Z,96.60
2023-06-18T01:11:56.979Z,96.60
2023-06-18T01:14:27.997Z,96.70
2023-06-18T01:16:58.065Z,96.80
2023-06-18T01:19:43.289Z,96.80
2023-06-18T01:24:53.208Z,97.10
2023-06-18T01:27:22.927Z,97.30
2023-06-18T01:29:52.440Z,97.20
2023-06-18T01:32:22.271Z,97.40
2023-06-18T01:34:54.970Z,97.40
2023-06-18T01:37:46.557Z,97.50
2023-06-18T01:40:22.501Z,97.70
2023-06-18T01:42:57.942Z,97.80
2023-06-18T01:45:29.082Z,97.70
2023-06-18T01:48:02.986Z,97.40
2023-06-18T01:50:32.922Z,97.50
2023-06-18T01:53:04.103Z,97.60
2023-06-18T01:55:35.881Z,97.60
2023-06-18T01:58:04.366Z,97.70
2023-06-18T02:00:32.751Z,97.70
2023-06-18T02:03:03.288Z,97.70
2023-06-18T02:05:35.903Z,97.70
2023-06-18T02:08:06.107Z,97.70
2023-06-18T02:10:34.553Z,97.90
2023-06-18T02:13:02.890Z,97.60
2023-06-18T02:15:32.207Z,97.50
2023-06-18T02:18:00.638Z,97.40
2023-06-18T02:20:29.202Z,97.30
2023-06-18T02:22:57.805Z,97.40
2023-06-18T02:25:31.157Z,97.30
2023-06-18T02:28:01.187Z,97.30
2023-06-18T02:30:31.973Z,97.30
2023-06-18T02:33:02.313Z,97.60
2023-06-18T02:35:32.882Z,97.80
2023-06-18T02:38:01.366Z,98.10
2023-06-18T02:40:31.193Z,98.50
2023-06-18T02:42:59.882Z,98.70
2023-06-18T02:45:30.699Z,98.50
2023-06-18T02:47:59.229Z,98.50
2023-06-18T02:50:27.692Z,98.60
2023-06-18T02:52:57.077Z,98.50
2023-06-18T02:55:25.704Z,98.50
2023-06-18T02:57:55.584Z,98.50
2023-06-18T03:00:24.224Z,98.30
2023-06-18T03:02:53.159Z,98.10
2023-06-18T03:05:24.503Z,98.10
2023-06-18T03:07:53.278Z,98.20
2023-06-18T03:10:22.723Z,98.20
2023-06-18T03:12:56.032Z,98.10
2023-06-18T03:15:44.758Z,98.20
2023-06-18T03:18:14.896Z,98.20
2023-06-18T03:20:44.766Z,98.30
2023-06-18T03:23:13.132Z,98.30
2023-06-18T03:25:45.023Z,98.20
2023-06-18T03:28:20.728Z,98.10
2023-06-18T03:30:49.532Z,98.10
2023-06-18T03:33:19.225Z,98.00
2023-06-18T03:35:51.145Z,98.10
2023-06-18T03:38:19.884Z,97.80
2023-06-18T03:40:48.655Z,97.80
2023-06-18T03:43:19.863Z,98.00
2023-06-18T03:45:50.285Z,98.10
2023-06-18T03:48:20.158Z,98.00
2023-06-18T03:50:49.123Z,97.90
2023-06-18T03:53:17.726Z,97.80
2023-06-18T03:55:47.215Z,98.00
2023-06-18T03:58:20.219Z,98.00
2023-06-18T04:00:52.036Z,97.90
2023-06-18T04:03:21.460Z,98.10
2023-06-18T04:05:49.953Z,98.20
2023-06-18T04:08:18.957Z,98.10
2023-06-18T04:10:48.418Z,98.10
2023-06-18T04:13:18.055Z,98.20
2023-06-18T04:15:47.657Z,97.80
2023-06-18T04:18:20.044Z,97.60
2023-06-18T04:20:50.922Z,97.80
2023-06-18T04:23:20.706Z,98.00
2023-06-18T04:25:49.113Z,98.10
2023-06-18T04:28:18.758Z,97.90
2023-06-18T04:30:47.199Z,97.80
2023-06-18T04:33:19.130Z,97.90
2023-06-18T04:35:48.824Z,96.90
2023-06-18T04:38:17.287Z,96.80
2023-06-18T04:40:47.139Z,96.90
2023-06-18T04:43:18.919Z,96.90
2023-06-18T04:45:48.350Z,96.90
2023-06-18T04:48:16.864Z,96.90
2023-06-18T04:50:49.487Z,96.60
2023-06-18T04:53:20.676Z,96.10
2023-06-18T04:55:50.288Z,95.60
2023-06-18T04:58:21.820Z,95.50
2023-06-18T05:00:53.471Z,95.30
2023-06-18T05:03:22.129Z,94.80
2023-06-18T05:05:52.193Z,94.60
2023-06-18T05:08:21.499Z,94.30
2023-06-18T05:10:52.058Z,94.10
2023-06-18T05:13:21.940Z,93.80
2023-06-18T05:15:50.402Z,93.70
2023-06-18T05:18:18.727Z,93.70
2023-06-18T05:20:47.130Z,93.40
2023-06-18T05:23:16.906Z,93.30
2023-06-18T05:25:45.524Z,93.30
2023-06-18T05:28:14.253Z,93.00
2023-06-18T05:30:48.028Z,92.70
2023-06-18T05:33:17.096Z,92.30
2023-06-18T05:35:49.427Z,92.20
2023-06-18T05:38:19.177Z,92.00
2023-06-18T05:40:47.963Z,91.50
2023-06-18T05:43:17.396Z,91.30
2023-06-18T05:45:50.943Z,91.20
2023-06-18T05:48:19.510Z,90.80
2023-06-18T05:51:00.343Z,90.80
2023-06-18T05:53:30.969Z,90.40
2023-06-18T05:55:59.381Z,89.80
2023-06-18T05:58:28.198Z,88.80
2023-06-18T06:00:56.695Z,86.90
2023-06-18T06:03:25.088Z,85.60
2023-06-18T06:05:53.502Z,84.60
2023-06-18T06:08:21.829Z,84.70
2023-06-18T06:10:56.469Z,85.30
2023-06-18T06:13:24.955Z,84.30
2023-06-18T06:15:59.983Z,83.60
2023-06-18T06:18:28.901Z,82.90
2023-06-18T06:20:57.307Z,81.50
2023-06-18T06:23:26.198Z,81.80
2023-06-18T06:25:56.067Z,80.60
2023-06-18T06:28:24.531Z,80.40
2023-06-18T06:30:52.916Z,81.10
2023-06-18T06:33:23.746Z,81.10
2023-06-18T06:35:56.102Z,80.90
2023-06-18T06:38:24.938Z,78.90
2023-06-18T06:40:54.317Z,78.60
2023-06-18T06:43:26.254Z,78.90
2023-06-18T06:46:32.870Z,78.30
2023-06-18T06:49:33.306Z,76.40
2023-06-18T06:52:10.278Z,75.40
2023-06-18T06:54:38.867Z,72.90
2023-06-18T06:57:09.586Z,73.60
2023-06-18T06:59:39.360Z,72.10
2023-06-18T07:02:08.146Z,71.60
2023-06-18T07:04:38.398Z,70.50
2023-06-18T07:07:06.787Z,70.60
2023-06-18T07:09:35.195Z,69.90
2023-06-18T07:12:03.587Z,69.50
2023-06-18T07:14:31.978Z,65.60
2023-06-18T07:17:01.821Z,65.70
2023-06-18T07:19:30.687Z,67.00
2023-06-18T07:21:59.049Z,67.30
2023-06-18T07:24:27.461Z,66.30
2023-06-18T07:26:55.942Z,67.30
2023-06-18T07:29:24.291Z,66.90
2023-06-18T07:31:54.772Z,67.40
2023-06-18T07:34:26.609Z,67.40
2023-06-18T07:36:55.144Z,65.70
2023-06-18T07:39:27.179Z,64.20
2023-06-18T07:41:55.493Z,64.80
2023-06-18T07:44:23.846Z,65.20
2023-06-18T07:46:54.265Z,60.90
2023-06-18T07:49:32.318Z,60.40
2023-06-18T07:52:02.845Z,61.20
2023-06-18T07:54:33.910Z,60.20
2023-06-18T07:57:02.319Z,60.30
2023-06-18T07:59:30.799Z,61.00
2023-06-18T08:01:59.216Z,59.60
2023-06-18T08:04:27.881Z,58.50
2023-06-18T08:06:56.313Z,58.00
2023-06-18T08:09:26.196Z,58.80
2023-06-18T08:11:54.563Z,58.40
2023-06-18T08:14:23.177Z,58.20
2023-06-18T08:16:53.931Z,57.30
2023-06-18T08:19:22.364Z,57.30
2023-06-18T08:21:50.822Z,57.00
2023-06-18T08:24:19.263Z,56.70
2023-06-18T08:26:49.114Z,55.00
2023-06-18T08:29:17.977Z,54.80
2023-06-18T08:31:46.560Z,53.20
2023-06-18T08:34:25.758Z,54.40
2023-06-18T08:37:01.394Z,54.50
2023-06-18T08:39:30.317Z,55.00
2023-06-18T08:42:01.362Z,53.20
2023-06-18T08:44:30.134Z,53.70
2023-06-18T08:47:01.305Z,52.60
2023-06-18T08:49:32.418Z,51.90
2023-06-18T08:52:04.702Z,50.50
2023-06-18T08:54:34.897Z,49.80
2023-06-18T08:57:12.976Z,50.10
2023-06-18T08:59:44.606Z,51.10
2023-06-18T09:02:14.001Z,50.10
2023-06-18T09:04:42.922Z,50.80
2023-06-18T09:07:11.344Z,49.60
2023-06-18T09:09:39.714Z,49.50
2023-06-18T09:12:10.221Z,49.90
2023-06-18T09:14:38.580Z,47.70
2023-06-18T09:17:08.090Z,46.70
2023-06-18T09:19:36.887Z,47.10
2023-06-18T09:22:14.654Z,46.70
2023-06-18T09:24:43.209Z,48.90
2023-06-18T09:27:27.975Z,47.30
2023-06-18T09:29:56.382Z,48.00
2023-06-18T09:32:24.803Z,46.90
2023-06-18T09:34:53.206Z,46.20
2023-06-18T09:37:21.731Z,46.00
2023-06-18T09:39:54.734Z,46.70
2023-06-18T09:42:31.783Z,46.40
2023-06-18T09:45:01.770Z,45.20
2023-06-18T09:47:31.033Z,45.70
2023-06-18T09:49:59.537Z,45.30
2023-06-18T09:52:29.290Z,45.00
2023-06-18T09:55:00.798Z,45.80
2023-06-18T09:57:32.536Z,45.80
2023-06-18T10:00:15.111Z,46.40
2023-06-18T10:02:44.246Z,46.50
2023-06-18T10:05:12.603Z,46.90
2023-06-18T10:07:42.069Z,47.30
2023-06-18T10:10:14.664Z,48.10
2023-06-18T10:12:45.121Z,44.40
2023-06-18T10:15:14.680Z,41.70
2023-06-18T10:17:47.353Z,42.90
2023-06-18T10:20:19.099Z,44.50
2023-06-18T10:22:50.351Z,44.60
2023-06-18T10:25:21.182Z,43.70
2023-06-18T10:27:51.660Z,43.90
2023-06-18T10:30:22.392Z,44.40
2023-06-18T10:32:51.405Z,47.00
2023-06-18T10:35:20.314Z,48.20
2023-06-18T10:37:49.216Z,48.50
2023-06-18T10:40:17.600Z,49.10
2023-06-18T10:42:49.803Z,49.40
2023-06-18T10:45:20.285Z,46.10
2023-06-18T10:47:49.010Z,44.80
2023-06-18T10:50:20.739Z,44.30
2023-06-18T10:52:51.334Z,46.70
2023-06-18T10:55:31.419Z,46.80
2023-06-18T10:58:06.432Z,47.00
2023-06-18T11:00:42.040Z,46.80
2023-06-18T11:03:14.891Z,46.60
2023-06-18T11:05:48.348Z,47.00
2023-06-18T11:08:18.642Z,47.60
2023-06-18T11:10:49.745Z,47.10
2023-06-18T11:13:19.050Z,47.20
2023-06-18T11:15:59.442Z,44.60
2023-06-18T11:18:29.580Z,44.50
2023-06-18T11:20:58.589Z,44.40
2023-06-18T11:23:28.208Z,43.90
2023-06-18T11:25:56.589Z,44.10
2023-06-18T11:28:26.280Z,43.70
2023-06-18T11:31:02.328Z,43.30
2023-06-18T11:33:38.124Z,42.40
2023-06-18T11:36:11.763Z,41.80
2023-06-18T11:38:41.059Z,42.00
2023-06-18T11:41:11.772Z,42.10
2023-06-18T11:43:48.161Z,42.50
2023-06-18T11:46:36.827Z,43.10
2023-06-18T11:49:14.968Z,43.40
2023-06-18T11:51:43.524Z,43.70
2023-06-18T11:54:12.419Z,44.20
2023-06-18T11:56:40.801Z,45.10
2023-06-18T11:59:09.228Z,44.90
2023-06-18T12:01:39.125Z,45.70
2023-06-18T12:04:09.718Z,46.50
2023-06-18T12:06:39.324Z,46.20
2023-06-18T12:09:09.573Z,44.10
2023-06-18T12:11:47.552Z,44.30
2023-06-18T12:14:21.808Z,44.70
2023-06-18T12:16:57.425Z,44.90
2023-06-18T12:19:26.812Z,46.10
2023-06-18T12:21:55.296Z,45.60
2023-06-18T12:24:23.841Z,45.50
2023-06-18T12:26:52.946Z,45.50
2023-06-18T12:29:22.950Z,45.40
2023-06-18T12:32:05.321Z,44.50
2023-06-18T12:34:36.588Z,45.10
2023-06-18T12:37:07.676Z,46.10
2023-06-18T12:39:39.179Z,45.60
2023-06-18T12:42:11.506Z,45.60
2023-06-18T12:44:41.845Z,46.10
2023-06-18T12:47:14.044Z,45.20
2023-06-18T12:49:42.622Z,45.80
2023-06-18T12:52:17.550Z,46.10
2023-06-18T12:54:46.726Z,45.70
2023-06-18T12:57:16.286Z,45.50
2023-06-18T12:59:49.823Z,46.20
2023-06-18T13:02:19.832Z,45.50
2023-06-18T13:04:48.664Z,45.30
2023-06-18T13:07:19.317Z,46.80
2023-06-18T13:09:49.991Z,47.20
2023-06-18T13:12:20.661Z,47.50
2023-06-18T13:14:49.301Z,47.80
2023-06-18T13:17:19.104Z,47.80
2023-06-18T13:19:58.919Z,48.10
2023-06-18T13:22:29.031Z,48.50
2023-06-18T13:24:58.608Z,48.80
2023-06-18T13:27:30.327Z,48.50
2023-06-18T13:30:01.285Z,48.90
2023-06-18T13:32:33.516Z,49.40
2023-06-18T13:35:04.632Z,48.90
2023-06-18T13:37:35.431Z,49.10
2023-06-18T13:40:04.401Z,49.40
2023-06-18T13:42:32.882Z,49.40
2023-06-18T13:45:01.296Z,49.50
2023-06-18T13:47:29.882Z,51.00
2023-06-18T13:49:59.802Z,51.50
2023-06-18T13:52:28.188Z,51.70
2023-06-18T13:54:58.671Z,51.60
2023-06-18T13:57:27.096Z,52.00
2023-06-18T13:59:58.053Z,52.00
2023-06-18T14:02:26.620Z,51.30
2023-06-18T14:04:55.842Z,51.00
2023-06-18T14:07:26.205Z,50.80
2023-06-18T14:09:54.599Z,51.30
2023-06-18T14:12:23.069Z,51.80
2023-06-18T14:14:51.700Z,52.30
2023-06-18T14:17:20.111Z,51.50
2023-06-18T14:19:48.499Z,52.00
2023-06-18T14:22:19.371Z,52.30
2023-06-18T14:24:49.124Z,52.30
2023-06-18T14:27:17.566Z,51.60
2023-06-18T14:29:46.030Z,52.50
2023-06-18T14:32:16.707Z,52.60
2023-06-18T14:34:45.095Z,53.00
2023-06-18T14:37:13.539Z,52.40
2023-06-18T14:39:42.025Z,51.60
2023-06-18T14:42:11.837Z,50.90
2023-06-18T14:44:40.223Z,49.30
2023-06-18T14:47:09.075Z,49.60
2023-06-18T14:49:40.002Z,49.00
2023-06-18T14:52:08.931Z,49.70
2023-06-18T14:54:37.563Z,48.80
2023-06-18T14:57:06.344Z,48.90
2023-06-18T14:59:37.589Z,49.80
2023-06-18T15:02:23.893Z,49.60
2023-06-18T15:04:58.234Z,48.50
2023-06-18T15:07:27.358Z,49.30
2023-06-18T15:09:58.213Z,48.80
2023-06-18T15:12:28.639Z,48.70
2023-06-18T15:14:58.538Z,49.10
2023-06-18T15:17:27.030Z,48.80
2023-06-18T15:19:57.559Z,47.50
2023-06-18T15:22:28.527Z,46.90
2023-06-18T15:24:59.156Z,47.20
2023-06-18T15:27:28.022Z,45.90
2023-06-18T15:29:56.493Z,46.80
2023-06-18T15:32:26.539Z,46.60
2023-06-18T15:34:55.071Z,47.10
2023-06-18T15:37:23.486Z,47.00
2023-06-18T15:39:51.883Z,47.40
2023-06-18T15:42:22.598Z,47.40
2023-06-18T15:44:51.023Z,47.90
2023-06-18T15:47:19.547Z,47.10
2023-06-18T15:49:51.870Z,47.30
2023-06-18T15:52:21.056Z,47.30
2023-06-18T15:54:49.421Z,47.00
2023-06-18T15:57:17.830Z,47.10
2023-06-18T15:59:46.257Z,46.70
2023-06-18T16:02:14.697Z,47.00
2023-06-18T16:04:43.101Z,47.30
2023-06-18T16:07:12.883Z,47.60
2023-06-18T16:09:43.665Z,47.30
2023-06-18T16:12:12.206Z,47.60
2023-06-18T16:14:40.610Z,47.60
2023-06-18T16:17:08.948Z,47.70
2023-06-18T16:19:38.017Z,47.90
2023-06-18T16:22:06.377Z,48.10
2023-06-18T16:24:37.214Z,48.00
2023-06-18T16:27:06.343Z,48.00
2023-06-18T16:29:35.632Z,48.20
2023-06-18T16:32:06.133Z,48.60
2023-06-18T16:34:34.575Z,47.50
2023-06-18T16:37:06.221Z,47.80
2023-06-18T16:39:37.744Z,48.00
2023-06-18T16:42:06.868Z,48.60
2023-06-18T16:44:35.266Z,48.90
2023-06-18T16:47:03.652Z,47.60
2023-06-18T16:49:32.106Z,48.40
2023-06-18T16:52:02.871Z,49.20
2023-06-18T16:54:33.557Z,50.40
2023-06-18T16:57:03.393Z,51.10
2023-06-18T16:59:32.066Z,51.50
2023-06-18T17:02:03.638Z,51.80
2023-06-18T17:04:32.359Z,51.30
2023-06-18T17:07:03.043Z,51.90
2023-06-18T17:09:31.520Z,51.70
2023-06-18T17:11:59.916Z,52.40
2023-06-18T17:14:29.844Z,52.30
2023-06-18T17:16:58.269Z,51.70
2023-06-18T17:19:26.775Z,52.20
2023-06-18T17:21:57.330Z,51.70
2023-06-18T17:24:28.393Z,51.70
2023-06-18T17:26:56.986Z,50.40
2023-06-18T17:29:25.404Z,50.20
2023-06-18T17:31:58.122Z,50.70
2023-06-18T17:34:26.647Z,50.50
2023-06-18T17:36:55.190Z,50.80
2023-06-18T17:39:25.001Z,52.10
2023-06-18T17:41:53.528Z,51.50
2023-06-18T17:44:22.007Z,51.30
2023-06-18T17:46:50.597Z,52.10
2023-06-18T17:49:20.502Z,51.10
2023-06-18T17:51:50.720Z,51.00
2023-06-18T17:54:19.451Z,52.80
2023-06-18T17:56:47.900Z,51.70
2023-06-18T17:59:16.260Z,51.50
2023-06-18T18:01:45.137Z,52.20
2023-06-18T18:04:13.828Z,51.70
2023-06-18T18:06:43.664Z,52.10
2023-06-18T18:09:12.049Z,52.10
2023-06-18T18:11:40.468Z,52.20
2023-06-18T18:14:08.803Z,52.30
2023-06-18T18:16:39.361Z,52.40
2023-06-18T18:19:07.820Z,52.70
2023-06-18T18:21:36.237Z,52.50
2023-06-18T18:24:06.328Z,52.40
2023-06-18T18:26:47.911Z,52.40
2023-06-18T18:29:18.227Z,52.40
2023-06-18T18:31:48.986Z,52.60
2023-06-18T18:34:17.360Z,52.60
2023-06-18T18:36:45.720Z,52.50
2023-06-18T18:39:15.477Z,53.20
2023-06-18T18:41:46.152Z,53.20
2023-06-18T18:44:14.616Z,53.40
2023-06-18T18:46:43.095Z,53.90
2023-06-18T18:49:11.555Z,54.10
2023-06-18T18:51:40.051Z,54.30
2023-06-18T18:54:08.895Z,54.60
2023-06-18T18:56:39.097Z,54.70
2023-06-18T18:59:08.974Z,54.90
2023-06-18T19:01:42.763Z,55.10
2023-06-18T19:04:11.523Z,54.80
2023-06-18T19:06:39.982Z,54.90
2023-06-18T19:09:11.161Z,54.70
2023-06-18T19:11:41.928Z,54.50
2023-06-18T19:14:12.907Z,55.00
2023-06-18T19:16:41.283Z,55.00
2023-06-18T19:19:12.121Z,55.30
2023-06-18T19:21:40.621Z,55.50
2023-06-18T19:24:09.107Z,56.30
2023-06-18T19:26:37.582Z,55.90
2023-06-18T19:29:08.042Z,56.50
2023-06-18T19:31:36.788Z,57.30
2023-06-18T19:34:05.182Z,57.50
2023-06-18T19:36:37.357Z,57.50
2023-06-18T19:39:09.411Z,57.40
2023-06-18T19:41:40.483Z,57.30
2023-06-18T19:44:10.529Z,57.30
2023-06-18T19:46:45.466Z,57.70
2023-06-18T19:49:14.126Z,57.70
2023-06-18T19:51:42.904Z,57.50
2023-06-18T19:54:11.379Z,58.20
2023-06-18T19:56:39.800Z,58.30
2023-06-18T19:59:08.563Z,59.00
2023-06-18T20:01:39.199Z,59.40
2023-06-18T20:04:08.516Z,60.10
2023-06-18T20:06:37.678Z,59.90
2023-06-18T20:09:06.537Z,60.80
2023-06-18T20:11:36.278Z,61.90
2023-06-18T20:14:04.751Z,63.10
2023-06-18T20:16:35.588Z,63.90
2023-06-18T20:19:05.561Z,64.30
2023-06-18T20:21:37.052Z,64.90
2023-06-18T20:24:06.153Z,65.50
2023-06-18T20:26:35.811Z,65.90
2023-06-18T20:29:04.573Z,66.60
2023-06-18T20:31:33.759Z,67.10
2023-06-18T20:34:02.139Z,68.10
2023-06-18T20:36:32.416Z,68.90
2023-06-18T20:39:00.805Z,69.20
2023-06-18T20:41:29.686Z,69.30
2023-06-18T20:43:58.079Z,69.60
2023-06-18T20:46:26.570Z,69.80
2023-06-18T20:48:55.118Z,69.20
2023-06-18T20:51:23.962Z,69.80
2023-06-18T20:53:58.578Z,70.30
2023-06-18T20:56:29.669Z,70.50
2023-06-18T20:58:58.313Z,71.30
2023-06-18T21:01:27.269Z,72.00
2023-06-18T21:03:55.830Z,72.60
2023-06-18T21:06:24.187Z,72.40
2023-06-18T21:08:53.975Z,71.70
2023-06-18T21:11:28.987Z,71.50
2023-06-18T21:13:57.474Z,71.40
2023-06-18T21:16:25.876Z,72.60
2023-06-18T21:18:54.369Z,72.80
2023-06-18T21:21:22.784Z,73.10
2023-06-18T21:23:51.295Z,73.50
2023-06-18T21:26:21.177Z,72.90
2023-06-18T21:28:51.667Z,74.20
2023-06-18T21:31:22.295Z,74.70
2023-06-18T21:33:50.688Z,73.60
2023-06-18T21:36:19.050Z,73.80
2023-06-18T21:38:49.495Z,73.70
2023-06-18T21:41:18.160Z,74.20
2023-06-18T21:43:47.893Z,76.00
2023-06-18T21:46:16.341Z,77.20
2023-06-18T21:48:44.706Z,77.80
2023-06-18T21:51:13.204Z,78.80
2023-06-18T21:53:41.604Z,78.90
2023-06-18T21:56:12.780Z,79.60
2023-06-18T21:58:41.861Z,80.30
2023-06-18T22:01:11.684Z,80.50
2023-06-18T22:03:40.214Z,80.40
2023-06-18T22:06:09.743Z,81.60
2023-06-18T22:08:42.023Z,82.50
2023-06-18T22:11:10.471Z,83.40
2023-06-18T22:13:38.907Z,83.40
2023-06-18T22:16:07.499Z,83.90
2023-06-18T22:18:37.959Z,85.50
2023-06-18T22:21:06.568Z,85.20
2023-06-18T22:23:34.963Z,85.50
2023-06-18T22:26:05.835Z,86.50
2023-06-18T22:28:34.281Z,87.60
2023-06-18T22:31:02.897Z,88.60
2023-06-18T22:33:31.744Z,88.40
2023-06-18T22:36:01.671Z,87.60
2023-06-18T22:38:32.549Z,88.20
2023-06-18T22:41:02.980Z,88.70
2023-06-18T22:43:31.846Z,89.00
2023-06-18T22:46:01.339Z,89.30
2023-06-18T22:48:29.785Z,89.50
2023-06-18T22:50:58.255Z,89.80
2023-06-18T22:53:28.056Z,90.00
2023-06-18T22:55:58.840Z,90.00
2023-06-18T22:58:29.020Z,90.20
2023-06-18T23:01:00.025Z,90.10
2023-06-18T23:03:28.556Z,90.10
2023-06-18T23:05:57.049Z,90.20
2023-06-18T23:08:25.448Z,89.80
2023-06-18T23:10:55.486Z,90.40
2023-06-18T23:13:23.850Z,90.60
2023-06-18T23:15:52.273Z,90.50
2023-06-18T23:18:20.623Z,90.30
2023-06-18T23:20:49.315Z,90.40
2023-06-18T23:23:17.669Z,90.60
2023-06-18T23:25:46.169Z,90.80
2023-06-18T23:28:16.085Z,90.80
2023-06-18T23:30:47.569Z,91.20
2023-06-18T23:33:16.045Z,91.20
2023-06-18T23:35:44.913Z,90.80
2023-06-18T23:38:13.641Z,91.10
2023-06-18T23:40:42.350Z,91.70
2023-06-18T23:43:11.011Z,91.60
2023-06-18T23:45:41.573Z,91.80
2023-06-18T23:48:10.016Z,91.30
2023-06-18T23:50:38.400Z,91.60
2023-06-18T23:53:07.126Z,92.00
2023-06-18T23:55:37.822Z,92.00
2023-06-18T23:58:06.353Z,92.00
